Terminal Aerodrome Forecast
Issued by NWS Atlanta, GA

Home | Current Version | Previous Version | Text Only | Print | Product List | Glossary On
Versions: 1 2 3 4 5 6 7 8 9 10 11 12 13 14 15 16 17 18 19
689
FTUS42 KFFC 172320
TAFMCN
TAF
KMCN 172320Z 1800/1824 21004KT P6SM FEW045 SCT250
     FM180800 24005KT 2SM BR OVC003
     FM181700 28009KT P6SM SCT015 BKN030
     FM182100 29007KT P6SM SCT040 SCT250=

USA.gov is the U.S. government's official web portal to all federal, state and local government web resources and services.